Bloomfield, New York
Current Conditions -  °F | °C
As of 8:54 AM on Saturday 22 Nov 2014 (Local Time) from KROC Reporting Station
Broken Clouds Broken Clouds  
Wind Chill: 18°   Ceiling: 13000
Heat Index: 29°   Visibility: 10mi
Dew Point:   Wind: 14mph
Humidity: 43%   Direction: 210°SSW
Pressure: 30.2"   Gusts: NA
Location:  42.88°N, 77.46°W
Report Text: KROC 221354Z 21012KT 10SM BKN130 M02/M13 A3020 RMK AO2 SLP236 T10171128
Loading
Personal Weather Stations






























Interactive Weather Map New forecast layout! Learn more

10-Day Weather Forecast

Advertisements
Track Severe Weather on mobile